createdAt,value
2023-05-11T00:01:59.611Z,3.00
2023-05-11T00:04:27.703Z,3.70
2023-05-11T00:06:55.455Z,3.30
2023-05-11T00:09:22.342Z,2.60
2023-05-11T00:11:49.228Z,2.50
2023-05-11T00:14:16.183Z,3.00
2023-05-11T00:16:43.115Z,4.00
2023-05-11T00:19:10.090Z,1.50
2023-05-11T00:21:37.010Z,3.50
2023-05-11T00:24:03.933Z,2.00
2023-05-11T00:26:30.910Z,2.80
2023-05-11T00:28:57.848Z,2.60
2023-05-11T00:31:24.896Z,2.30
2023-05-11T00:33:52.061Z,2.30
2023-05-11T00:36:19.183Z,3.50
2023-05-11T00:38:46.677Z,2.20
2023-05-11T00:41:13.543Z,2.50
2023-05-11T00:43:40.851Z,2.20
2023-05-11T00:46:07.812Z,1.90
2023-05-11T00:48:34.920Z,1.80
2023-05-11T00:51:01.819Z,1.50
2023-05-11T00:53:28.808Z,2.20
2023-05-11T00:55:55.800Z,1.80
2023-05-11T00:58:23.206Z,2.00
2023-05-11T01:00:50.286Z,1.80
2023-05-11T01:03:17.293Z,1.40
2023-05-11T01:05:53.458Z,1.70
2023-05-11T01:08:35.089Z,3.30
2023-05-11T01:11:11.349Z,2.40
2023-05-11T01:13:41.434Z,2.70
2023-05-11T01:16:12.455Z,3.10
2023-05-11T01:18:49.368Z,1.30
2023-05-11T01:21:16.903Z,3.00
2023-05-11T01:23:56.955Z,2.40
2023-05-11T01:26:49.696Z,3.40
2023-05-11T01:29:33.529Z,2.70
2023-05-11T01:32:00.643Z,3.20
2023-05-11T01:34:30.859Z,2.40
2023-05-11T01:37:16.953Z,2.60
2023-05-11T01:39:57.183Z,3.40
2023-05-11T01:42:40.389Z,2.10
2023-05-11T01:45:08.384Z,3.30
2023-05-11T01:47:35.382Z,2.00
2023-05-11T01:50:03.556Z,4.20
2023-05-11T01:52:31.035Z,2.40
2023-05-11T01:54:58.755Z,2.00
2023-05-11T01:57:25.716Z,2.90
2023-05-11T01:59:52.659Z,2.00
2023-05-11T02:02:20.258Z,2.60
2023-05-11T02:04:47.366Z,4.90
2023-05-11T02:07:14.413Z,3.30
2023-05-11T02:09:41.361Z,3.70
2023-05-11T02:12:09.022Z,3.50
2023-05-11T02:14:36.768Z,3.10
2023-05-11T02:17:04.174Z,3.90
2023-05-11T02:19:32.610Z,3.50
2023-05-11T02:21:59.514Z,3.70
2023-05-11T02:24:27.574Z,3.30
2023-05-11T02:26:54.776Z,1.50
2023-05-11T02:29:22.125Z,2.60
2023-05-11T02:31:53.209Z,3.10
2023-05-11T02:34:43.897Z,3.20
2023-05-11T02:37:15.444Z,4.00
2023-05-11T02:39:45.124Z,2.50
2023-05-11T02:42:18.006Z,3.60
2023-05-11T02:44:58.217Z,3.70
2023-05-11T02:47:31.054Z,2.70
2023-05-11T02:49:59.521Z,3.40
2023-05-11T02:52:27.619Z,3.30
2023-05-11T02:54:54.592Z,4.20
2023-05-11T02:57:21.685Z,2.10
2023-05-11T02:59:48.831Z,5.30
2023-05-11T03:02:16.035Z,3.00
2023-05-11T03:04:43.432Z,3.70
2023-05-11T03:07:10.595Z,3.00
2023-05-11T03:09:38.137Z,2.80
2023-05-11T03:12:05.222Z,4.20
2023-05-11T03:14:33.361Z,3.70
2023-05-11T03:17:00.869Z,3.20
2023-05-11T03:19:28.989Z,3.40
2023-05-11T03:21:56.490Z,3.10
2023-05-11T03:24:25.847Z,3.00
2023-05-11T03:26:54.235Z,3.00
2023-05-11T03:29:21.577Z,4.00
2023-05-11T03:31:51.091Z,4.80
2023-05-11T03:34:18.942Z,2.80
2023-05-11T03:36:46.647Z,4.60
2023-05-11T03:39:13.723Z,3.70
2023-05-11T03:41:41.446Z,2.10
2023-05-11T03:44:11.889Z,2.20
2023-05-11T03:46:40.378Z,2.90
2023-05-11T03:49:07.866Z,2.60
2023-05-11T03:51:34.929Z,2.40
2023-05-11T03:54:02.096Z,2.90
2023-05-11T03:56:29.126Z,2.70
2023-05-11T03:58:56.163Z,3.90
2023-05-11T04:01:23.207Z,2.50
2023-05-11T04:03:51.272Z,2.50
2023-05-11T04:06:18.830Z,2.00
2023-05-11T04:08:48.442Z,4.60
2023-05-11T04:11:15.482Z,3.20
2023-05-11T04:13:42.632Z,4.00
2023-05-11T04:16:09.533Z,2.70
2023-05-11T04:18:36.811Z,1.80
2023-05-11T04:21:04.281Z,1.60
2023-05-11T04:23:31.333Z,1.50
2023-05-11T04:25:59.199Z,1.50
2023-05-11T04:28:28.151Z,1.50
2023-05-11T04:30:56.612Z,3.00
2023-05-11T04:33:24.111Z,2.30
2023-05-11T04:35:52.397Z,2.60
2023-05-11T04:38:20.058Z,1.50
2023-05-11T04:40:48.264Z,1.40
2023-05-11T04:43:41.324Z,2.80
2023-05-11T04:46:09.767Z,1.20
2023-05-11T04:48:37.066Z,2.10
2023-05-11T04:51:06.280Z,1.30
2023-05-11T04:53:36.678Z,1.60
2023-05-11T04:56:04.029Z,1.60
2023-05-11T04:58:31.179Z,1.70
2023-05-11T05:00:58.247Z,1.20
2023-05-11T05:03:25.268Z,1.60
2023-05-11T05:05:52.342Z,1.40
2023-05-11T05:08:19.302Z,1.10
2023-05-11T05:10:47.747Z,1.60
2023-05-11T05:13:16.949Z,2.00
2023-05-11T05:15:44.123Z,0.70
2023-05-11T05:18:12.021Z,2.00
2023-05-11T05:20:39.895Z,1.90
2023-05-11T05:23:07.025Z,2.00
2023-05-11T05:25:34.422Z,1.80
2023-05-11T05:28:01.372Z,1.30
2023-05-11T05:30:28.528Z,1.00
2023-05-11T05:32:55.802Z,2.50
2023-05-11T05:35:46.773Z,1.80
2023-05-11T05:38:13.892Z,2.40
2023-05-11T05:40:40.996Z,1.70
2023-05-11T05:43:08.778Z,2.40
2023-05-11T05:45:35.984Z,1.00
2023-05-11T05:48:05.459Z,2.00
2023-05-11T05:50:33.796Z,1.50
2023-05-11T05:53:00.919Z,1.10
2023-05-11T05:58:59.893Z,2.40
2023-05-11T06:01:27.865Z,3.70
2023-05-11T06:03:56.668Z,2.20
2023-05-11T06:06:24.815Z,1.60
2023-05-11T06:08:51.859Z,1.60
2023-05-11T06:11:18.927Z,1.20
2023-05-11T06:13:46.356Z,1.10
2023-05-11T06:16:13.478Z,0.70
2023-05-11T06:18:40.544Z,0.60
2023-05-11T06:21:07.610Z,1.50
2023-05-11T06:23:34.659Z,1.40
2023-05-11T06:26:02.329Z,0.90
2023-05-11T06:28:30.529Z,0.60
2023-05-11T06:31:00.834Z,0.60
2023-05-11T06:33:30.431Z,1.90
2023-05-11T06:35:58.441Z,0.80
2023-05-11T06:38:28.662Z,0.50
2023-05-11T06:40:56.571Z,0.90
2023-05-11T06:43:23.563Z,1.00
2023-05-11T06:45:52.975Z,1.70
2023-05-11T06:48:23.566Z,0.60
2023-05-11T06:50:50.769Z,0.40
2023-05-11T06:53:18.130Z,0.80
2023-05-11T06:55:45.237Z,1.00
2023-05-11T06:58:12.262Z,1.00
2023-05-11T07:05:23.586Z,1.30
2023-05-11T07:07:51.445Z,1.40
2023-05-11T07:10:18.798Z,2.60
2023-05-11T07:12:46.023Z,0.80
2023-05-11T07:15:12.984Z,0.80
2023-05-11T07:17:39.915Z,0.60
2023-05-11T07:20:08.109Z,0.60
2023-05-11T07:22:35.233Z,0.80
2023-05-11T07:25:02.279Z,1.80
2023-05-11T07:27:29.216Z,1.90
2023-05-11T07:29:56.134Z,1.20
2023-05-11T07:32:23.311Z,1.40
2023-05-11T07:34:50.464Z,0.50
2023-05-11T07:37:17.611Z,0.70
2023-05-11T07:39:44.631Z,1.10
2023-05-11T07:42:11.718Z,0.70
2023-05-11T07:44:38.650Z,1.10
2023-05-11T07:47:05.716Z,0.40
2023-05-11T07:49:42.847Z,0.80
2023-05-11T07:52:10.519Z,0.80
2023-05-11T07:54:37.582Z,1.30
2023-05-11T07:57:05.461Z,0.50
2023-05-11T07:59:32.805Z,1.50
2023-05-11T08:01:59.882Z,2.80
2023-05-11T08:04:27.713Z,1.70
2023-05-11T08:06:54.783Z,0.70
2023-05-11T08:09:24.813Z,0.60
2023-05-11T08:11:56.897Z,1.60
2023-05-11T08:14:25.741Z,1.40
2023-05-11T08:16:54.211Z,1.00
2023-05-11T08:19:23.674Z,0.90
2023-05-11T08:21:52.293Z,1.80
2023-05-11T08:24:20.275Z,1.40
2023-05-11T08:26:49.311Z,1.20
2023-05-11T08:29:18.794Z,1.40
2023-05-11T08:31:46.641Z,0.70
2023-05-11T08:34:19.314Z,1.00
2023-05-11T08:36:47.082Z,0.60
2023-05-11T08:39:14.341Z,1.00
2023-05-11T08:41:41.345Z,1.10
2023-05-11T08:44:08.313Z,1.20
2023-05-11T08:46:35.978Z,1.10
2023-05-11T08:49:02.990Z,0.70
2023-05-11T08:51:30.075Z,1.00
2023-05-11T08:53:58.819Z,0.60
2023-05-11T08:56:26.297Z,0.80
2023-05-11T08:58:57.217Z,1.40
2023-05-11T09:01:24.493Z,1.40
2023-05-11T09:03:51.601Z,1.00
2023-05-11T09:06:18.591Z,0.60
2023-05-11T09:08:46.076Z,1.00
2023-05-11T09:11:13.296Z,1.70
2023-05-11T09:13:40.548Z,0.80
2023-05-11T09:16:19.584Z,0.70
2023-05-11T09:18:52.291Z,1.10
2023-05-11T09:21:19.901Z,1.00
2023-05-11T09:23:49.831Z,0.50
2023-05-11T09:26:17.798Z,0.60
2023-05-11T09:29:04.010Z,0.80
2023-05-11T09:31:45.034Z,0.70
2023-05-11T09:34:13.460Z,1.70
2023-05-11T09:36:46.338Z,1.30
2023-05-11T09:39:16.605Z,1.00
2023-05-11T09:41:44.416Z,0.80
2023-05-11T09:44:14.299Z,1.60
2023-05-11T09:46:45.478Z,1.00
2023-05-11T09:49:13.586Z,1.30
2023-05-11T09:51:41.354Z,1.50
2023-05-11T09:54:21.996Z,1.60
2023-05-11T09:56:52.867Z,0.70
2023-05-11T09:59:40.033Z,1.30
2023-05-11T10:02:19.922Z,1.10
2023-05-11T10:04:48.754Z,1.10
2023-05-11T10:07:39.074Z,0.80
2023-05-11T10:10:11.894Z,0.80
2023-05-11T10:12:40.624Z,1.10
2023-05-11T10:15:09.260Z,0.40
2023-05-11T10:17:37.398Z,1.50
2023-05-11T10:20:05.426Z,0.60
2023-05-11T10:22:32.431Z,0.80
2023-05-11T10:24:59.640Z,0.60
2023-05-11T10:27:27.130Z,1.10
2023-05-11T10:29:54.137Z,0.90
2023-05-11T10:32:21.700Z,1.10
2023-05-11T10:34:50.298Z,0.90
2023-05-11T10:37:17.447Z,2.20
2023-05-11T10:39:48.423Z,1.30
2023-05-11T10:42:48.107Z,0.50
2023-05-11T10:45:32.218Z,1.10
2023-05-11T10:48:11.457Z,1.00
2023-05-11T10:51:00.178Z,0.60
2023-05-11T10:54:04.750Z,1.00
2023-05-11T10:56:54.081Z,0.60
2023-05-11T10:59:37.083Z,1.10
2023-05-11T11:02:04.250Z,0.70
2023-05-11T11:04:48.710Z,0.60
2023-05-11T11:07:18.734Z,0.90
2023-05-11T11:10:07.239Z,0.80
2023-05-11T11:12:37.014Z,1.00
2023-05-11T11:15:06.589Z,1.10
2023-05-11T11:17:35.533Z,1.70
2023-05-11T11:20:07.773Z,1.00
2023-05-11T11:22:34.924Z,0.60
2023-05-11T11:25:05.288Z,1.20
2023-05-11T11:27:41.735Z,0.80
2023-05-11T11:30:22.207Z,0.60
2023-05-11T11:32:51.050Z,1.40
2023-05-11T11:35:43.643Z,0.60
2023-05-11T11:38:15.342Z,1.10
2023-05-11T11:40:54.855Z,1.00
2023-05-11T11:43:27.033Z,1.10
2023-05-11T11:46:02.266Z,1.10
2023-05-11T11:48:35.638Z,1.10
2023-05-11T11:51:09.317Z,3.00
2023-05-11T11:53:36.672Z,1.60
2023-05-11T11:56:04.542Z,0.90
2023-05-11T11:58:44.585Z,1.00
2023-05-11T12:01:17.133Z,1.00
2023-05-11T12:03:46.487Z,1.80
2023-05-11T12:06:14.622Z,1.70
2023-05-11T12:08:43.715Z,1.10
2023-05-11T12:11:10.957Z,2.10
2023-05-11T12:13:38.709Z,1.20
2023-05-11T12:16:09.680Z,1.30
2023-05-11T12:18:37.131Z,0.80
2023-05-11T12:21:04.533Z,0.50
2023-05-11T12:23:31.964Z,1.60
2023-05-11T12:26:05.591Z,0.60
2023-05-11T12:28:36.025Z,0.40
2023-05-11T12:31:03.371Z,0.90
2023-05-11T12:33:30.527Z,0.50
2023-05-11T12:35:58.130Z,0.80
2023-05-11T12:38:26.241Z,0.90
2023-05-11T12:40:53.512Z,0.60
2023-05-11T12:43:21.890Z,1.80
2023-05-11T12:45:48.981Z,2.20
2023-05-11T12:48:16.100Z,2.50
2023-05-11T12:50:46.577Z,0.90
2023-05-11T12:53:16.939Z,0.60
2023-05-11T12:55:44.033Z,0.40
2023-05-11T12:58:16.213Z,0.70
2023-05-11T13:00:59.875Z,1.00
2023-05-11T13:03:30.835Z,1.40
2023-05-11T13:06:09.136Z,1.00
2023-05-11T13:08:54.407Z,1.10
2023-05-11T13:11:25.858Z,1.00
2023-05-11T13:13:54.134Z,1.10
2023-05-11T13:16:28.587Z,0.60
2023-05-11T13:19:06.335Z,0.90
2023-05-11T13:21:33.956Z,0.80
2023-05-11T13:24:02.173Z,1.10
2023-05-11T13:26:32.762Z,1.90
2023-05-11T13:29:10.267Z,1.30
2023-05-11T13:31:51.550Z,0.80
2023-05-11T13:34:20.505Z,1.20
2023-05-11T13:36:48.629Z,0.90
2023-05-11T13:39:15.577Z,0.60
2023-05-11T13:41:42.709Z,1.10
2023-05-11T13:44:09.809Z,1.20
2023-05-11T13:46:36.822Z,1.20
2023-05-11T13:49:04.826Z,2.10
2023-05-11T13:51:32.339Z,1.30
2023-05-11T13:54:01.108Z,1.60
2023-05-11T13:56:28.080Z,0.60
2023-05-11T13:58:55.870Z,1.20
2023-05-11T14:01:24.264Z,0.80
2023-05-11T14:03:54.991Z,2.10
2023-05-11T14:06:23.592Z,1.80
2023-05-11T14:08:51.058Z,1.40
2023-05-11T14:11:19.919Z,1.60
2023-05-11T14:13:47.060Z,1.10
2023-05-11T14:16:14.983Z,1.50
2023-05-11T14:18:42.636Z,1.50
2023-05-11T14:21:10.022Z,1.60
2023-05-11T14:23:39.878Z,2.00
2023-05-11T14:26:08.767Z,1.50
2023-05-11T14:28:35.956Z,1.40
2023-05-11T14:31:02.947Z,0.50
2023-05-11T14:33:30.151Z,0.80
2023-05-11T14:35:57.264Z,1.50
2023-05-11T14:38:24.250Z,1.00
2023-05-11T14:40:55.633Z,1.20
2023-05-11T14:43:24.383Z,0.90
2023-05-11T14:45:51.289Z,1.20
2023-05-11T14:48:18.265Z,1.30
2023-05-11T14:50:45.362Z,0.80
2023-05-11T14:53:12.773Z,1.20
2023-05-11T14:55:39.993Z,1.40
2023-05-11T14:58:09.971Z,1.00
2023-05-11T15:00:40.421Z,0.70
2023-05-11T15:03:11.125Z,1.20
2023-05-11T15:05:38.847Z,1.10
2023-05-11T15:08:15.301Z,0.80
2023-05-11T15:10:49.377Z,1.50
2023-05-11T15:13:16.273Z,1.10
2023-05-11T15:15:43.337Z,1.60
2023-05-11T15:18:13.872Z,0.90
2023-05-11T15:20:42.329Z,2.10
2023-05-11T15:23:09.850Z,0.90
2023-05-11T15:25:37.119Z,1.20
2023-05-11T15:28:04.207Z,1.10
2023-05-11T15:30:32.750Z,1.30
2023-05-11T15:33:00.321Z,1.10
2023-05-11T15:35:27.621Z,1.20
2023-05-11T15:37:54.652Z,1.50
2023-05-11T15:40:22.324Z,1.00
2023-05-11T15:42:49.558Z,1.70
2023-05-11T15:45:17.991Z,1.10
2023-05-11T15:47:45.335Z,1.40
2023-05-11T15:50:13.124Z,0.90
2023-05-11T15:52:43.175Z,1.10
2023-05-11T15:55:10.221Z,1.10
2023-05-11T15:57:37.878Z,1.00
2023-05-11T16:00:05.854Z,0.90
2023-05-11T16:02:34.796Z,1.20
2023-05-11T16:05:02.147Z,1.30
2023-05-11T16:07:29.957Z,1.70
2023-05-11T16:09:56.858Z,2.00
2023-05-11T16:12:23.954Z,1.30
2023-05-11T16:14:51.103Z,1.00
2023-05-11T16:17:18.203Z,0.70
2023-05-11T16:19:45.241Z,0.60
2023-05-11T16:22:12.277Z,0.70
2023-05-11T16:24:39.490Z,0.70
2023-05-11T16:27:06.536Z,0.60
2023-05-11T16:29:33.774Z,0.90
2023-05-11T16:32:00.944Z,1.10
2023-05-11T16:34:28.212Z,1.40
2023-05-11T16:36:57.202Z,0.90
2023-05-11T16:39:25.773Z,1.00
2023-05-11T16:41:52.727Z,1.10
2023-05-11T16:44:19.712Z,1.10
2023-05-11T16:46:47.524Z,1.20
2023-05-11T16:49:14.681Z,1.30
2023-05-11T16:51:41.809Z,1.60
2023-05-11T16:54:10.229Z,1.00
2023-05-11T16:56:37.418Z,1.20
2023-05-11T16:59:04.568Z,0.80
2023-05-11T17:01:32.352Z,1.40
2023-05-11T17:03:59.536Z,0.90
2023-05-11T17:06:27.612Z,1.10
2023-05-11T17:08:54.771Z,1.00
2023-05-11T17:11:21.806Z,2.50
2023-05-11T17:13:48.745Z,1.60
2023-05-11T17:16:16.173Z,2.40
2023-05-11T17:18:43.782Z,2.10
2023-05-11T17:21:10.914Z,2.80
2023-05-11T17:23:38.060Z,2.00
2023-05-11T17:26:11.899Z,1.30
2023-05-11T17:28:39.635Z,1.60
2023-05-11T17:31:11.556Z,1.00
2023-05-11T17:33:39.084Z,0.90
2023-05-11T17:36:06.707Z,1.00
2023-05-11T17:38:33.947Z,0.90
2023-05-11T17:41:04.811Z,0.90
2023-05-11T17:43:32.743Z,1.30
2023-05-11T17:46:00.368Z,0.90
2023-05-11T17:48:27.482Z,0.90
2023-05-11T17:50:54.420Z,0.60
2023-05-11T17:53:22.018Z,0.70
2023-05-11T17:55:50.403Z,1.00
2023-05-11T17:58:17.394Z,1.30
2023-05-11T18:00:49.188Z,1.20
2023-05-11T18:03:19.753Z,0.90
2023-05-11T18:05:49.050Z,1.90
2023-05-11T18:08:16.620Z,1.50
2023-05-11T18:10:44.437Z,1.10
2023-05-11T18:13:11.445Z,1.40
2023-05-11T18:15:38.458Z,1.70
2023-05-11T18:18:05.593Z,1.90
2023-05-11T18:20:32.516Z,1.90
2023-05-11T18:22:59.940Z,1.00
2023-05-11T18:25:28.128Z,1.90
2023-05-11T18:27:55.377Z,1.70
2023-05-11T18:30:38.896Z,1.60
2023-05-11T18:33:09.091Z,1.00
2023-05-11T18:35:42.011Z,1.00
2023-05-11T18:38:10.796Z,1.60
2023-05-11T18:40:38.599Z,1.10
2023-05-11T18:43:06.046Z,0.60
2023-05-11T18:45:35.291Z,1.40
2023-05-11T18:48:04.407Z,0.70
2023-05-11T18:50:40.456Z,1.90
2023-05-11T18:53:13.045Z,1.90
2023-05-11T18:55:53.315Z,2.90
2023-05-11T18:58:26.790Z,2.30
2023-05-11T19:00:55.503Z,2.10
2023-05-11T19:03:24.081Z,2.00
2023-05-11T19:05:54.585Z,2.10
2023-05-11T19:08:32.166Z,2.20
2023-05-11T19:11:22.126Z,2.90
2023-05-11T19:14:05.583Z,3.50
2023-05-11T19:16:39.951Z,2.30
2023-05-11T19:19:10.001Z,2.70
2023-05-11T19:21:49.716Z,3.70
2023-05-11T19:24:29.155Z,3.90
2023-05-11T19:29:48.311Z,3.80
2023-05-11T19:32:15.796Z,3.20
2023-05-11T19:34:44.397Z,3.30
2023-05-11T19:37:14.677Z,5.80
2023-05-11T19:39:47.734Z,5.30
2023-05-11T19:42:25.862Z,7.20
2023-05-11T19:45:03.100Z,6.60
2023-05-11T19:47:32.852Z,4.70
2023-05-11T19:50:01.909Z,4.90
2023-05-11T19:52:42.924Z,6.50
2023-05-11T19:55:12.821Z,7.40
2023-05-11T19:57:42.019Z,7.10
2023-05-11T20:03:10.138Z,8.10
2023-05-11T20:08:31.329Z,6.10
2023-05-11T20:10:58.377Z,6.00
2023-05-11T20:13:27.987Z,7.10
2023-05-11T20:15:58.136Z,6.50
2023-05-11T20:18:28.295Z,6.00
2023-05-11T20:21:00.484Z,8.00
2023-05-11T20:23:27.944Z,8.80
2023-05-11T20:25:55.399Z,5.70
2023-05-11T20:28:22.864Z,7.40
2023-05-11T20:30:50.100Z,5.00
2023-05-11T20:35:47.077Z,6.40
2023-05-11T20:38:14.109Z,5.70
2023-05-11T20:40:41.622Z,4.00
2023-05-11T20:43:08.640Z,5.70
2023-05-11T20:45:35.784Z,6.60
2023-05-11T20:48:02.955Z,6.40
2023-05-11T20:50:30.271Z,6.00
2023-05-11T20:52:57.208Z,4.80
2023-05-11T20:55:24.480Z,5.50
2023-05-11T20:57:51.605Z,5.60
2023-05-11T21:00:18.861Z,4.70
2023-05-11T21:02:46.735Z,6.80
2023-05-11T21:05:13.971Z,8.60
2023-05-11T21:07:41.018Z,8.10
2023-05-11T21:10:10.764Z,6.00
2023-05-11T21:12:37.773Z,5.30
2023-05-11T21:15:05.843Z,7.90
2023-05-11T21:17:33.002Z,4.00
2023-05-11T21:20:00.042Z,4.90
2023-05-11T21:22:27.494Z,6.20
2023-05-11T21:24:54.642Z,5.00
2023-05-11T21:27:21.690Z,5.90
2023-05-11T21:29:49.450Z,6.10
2023-05-11T21:32:17.011Z,5.20
2023-05-11T21:34:44.256Z,6.80
2023-05-11T21:37:14.802Z,4.90
2023-05-11T21:39:42.452Z,6.50
2023-05-11T21:42:09.596Z,6.10
2023-05-11T21:44:36.644Z,5.60
2023-05-11T21:47:03.906Z,4.10
2023-05-11T21:49:33.005Z,6.20
2023-05-11T21:52:00.072Z,5.00
2023-05-11T21:54:28.106Z,9.80
2023-05-11T21:56:55.163Z,5.30
2023-05-11T21:59:26.827Z,4.10
2023-05-11T22:01:55.534Z,4.00
2023-05-11T22:04:23.763Z,5.00
2023-05-11T22:06:50.914Z,4.50
2023-05-11T22:09:18.473Z,6.40
2023-05-11T22:11:45.516Z,5.70
2023-05-11T22:14:12.675Z,5.70
2023-05-11T22:16:40.114Z,5.40
2023-05-11T22:19:08.243Z,4.90
2023-05-11T22:21:35.959Z,4.80
2023-05-11T22:24:04.437Z,5.20
2023-05-11T22:26:31.483Z,5.40
2023-05-11T22:28:58.537Z,7.30
2023-05-11T22:31:26.968Z,7.80
2023-05-11T22:33:54.052Z,6.80
2023-05-11T22:36:21.288Z,7.40
2023-05-11T22:38:48.238Z,7.70
2023-05-11T22:41:15.488Z,6.50
2023-05-11T22:43:44.087Z,4.90
2023-05-11T22:46:11.132Z,5.50
2023-05-11T22:48:38.152Z,4.60
2023-05-11T22:51:06.573Z,5.10
2023-05-11T22:53:33.494Z,9.80
2023-05-11T22:56:05.172Z,13.20
2023-05-11T22:58:32.384Z,8.60
2023-05-11T23:00:59.442Z,6.30
2023-05-11T23:03:26.853Z,8.20
2023-05-11T23:05:54.451Z,5.80
2023-05-11T23:08:26.670Z,5.30
2023-05-11T23:10:53.658Z,4.80
2023-05-11T23:13:20.577Z,4.00
2023-05-11T23:15:47.545Z,5.00
2023-05-11T23:18:14.602Z,4.90
2023-05-11T23:20:41.558Z,4.70
2023-05-11T23:23:08.450Z,4.90
2023-05-11T23:25:35.520Z,4.50
2023-05-11T23:28:02.465Z,5.20
2023-05-11T23:30:29.407Z,2.90
2023-05-11T23:32:56.596Z,3.50
2023-05-11T23:35:23.601Z,2.70
2023-05-11T23:37:50.552Z,2.80
2023-05-11T23:40:18.803Z,3.30
2023-05-11T23:42:45.865Z,2.80
2023-05-11T23:45:13.637Z,4.20
2023-05-11T23:47:40.618Z,3.90
2023-05-11T23:50:08.473Z,2.60
2023-05-11T23:52:35.896Z,3.20
2023-05-11T23:55:02.944Z,3.70
2023-05-11T23:57:29.884Z,2.40
2023-05-11T23:59:57.029Z,2.20
